Time;durP1;ratioP1;P1;durP2;ratioP2;P2;SDS_P1;SDS_P2;PMS_P1;PMS_P2;Temp;Humidity;BMP_temperature;BMP_pressure;BME280_temperature;BME280_humidity;BME280_pressure;Samples;Min_cycle;Max_cycle;Signal;HPM_P1;HPM_P2
2021/07/20 02:49:19;;;;;;;9.68;6.53;;;;;;;23.22;100.00;98479.55;1747071;80;21573;-67
2021/07/20 02:52:01;;;;;;;8.75;6.10;;;;;;;23.23;100.00;98473.68;1744330;81;21423;-67
2021/07/20 02:54:40;;;;;;;15.32;6.50;;;;;;;23.22;100.00;98473.30;1745087;81;21475;-68
2021/07/20 02:57:23;;;;;;;13.13;6.47;;;;;;;23.23;100.00;98479.06;1749630;81;20973;-68
2021/07/20 02:59:55;;;;;;;10.90;5.87;;;;;;;23.24;100.00;98486.17;1748120;81;21482;-63
2021/07/20 03:02:44;;;;;;;16.47;6.63;;;;;;;23.27;100.00;98485.09;1720035;82;22000;-67
2021/07/20 03:05:21;;;;;;;13.50;6.33;;;;;;;23.27;100.00;98483.75;1737649;81;21380;-67
2021/07/20 03:07:56;;;;;;;11.55;6.05;;;;;;;23.28;100.00;98481.44;1753284;80;21466;-67
2021/07/20 03:10:42;;;;;;;13.62;6.33;;;;;;;23.29;100.00;98484.02;1751224;80;20980;-67
2021/07/20 03:13:17;;;;;;;13.32;6.67;;;;;;;23.32;100.00;98491.02;1723152;82;21028;-68
2021/07/20 03:15:50;;;;;;;12.75;7.25;;;;;;;23.32;100.00;98493.23;1724868;82;21490;-68
2021/07/20 03:18:27;;;;;;;25.85;8.88;;;;;;;23.33;100.00;98496.30;1721481;83;21520;-68
2021/07/20 03:20:59;;;;;;;34.23;9.48;;;;;;;23.35;100.00;98505.13;1734246;82;21130;-67
2021/07/20 03:23:31;;;;;;;27.13;9.20;;;;;;;23.36;100.00;98516.27;1734195;82;20952;-68
2021/07/20 03:26:05;;;;;;;;;;;;;;;23.36;100.00;98513.59;1732645;81;21036;-69
2021/07/20 03:28:38;;;;;;;25.05;9.38;;;;;;;23.39;100.00;98520.10;1730742;81;20437;-68
2021/07/20 03:31:11;;;;;;;22.62;11.08;;;;;;;23.40;100.00;98512.41;1726698;81;21454;-61
2021/07/20 03:33:48;;;;;;;25.12;10.95;;;;;;;23.39;100.00;98509.34;1707363;81;21138;-69
2021/07/20 03:36:26;;;;;;;21.75;9.05;;;;;;;23.39;100.00;98515.20;1724211;81;20959;-68
2021/07/20 03:38:56;;;;;;;15.90;7.45;;;;;;;23.40;100.00;98511.55;1731354;81;21011;-67
2021/07/20 03:41:30;;;;;;;11.53;7.33;;;;;;;23.43;100.00;98505.95;1732739;82;21525;-67
2021/07/20 03:44:05;;;;;;;14.68;6.70;;;;;;;23.45;100.00;98508.05;1724388;81;21574;-68
2021/07/20 03:46:39;;;;;;;10.88;7.28;;;;;;;23.46;100.00;98505.25;1736944;82;21098;-67
2021/07/20 03:49:15;;;;;;;13.08;6.62;;;;;;;23.52;100.00;98517.43;1727658;81;21811;-67
2021/07/20 03:51:49;;;;;;;9.78;6.22;;;;;;;23.54;100.00;98521.74;1750422;81;21568;-68
2021/07/20 03:54:23;;;;;;;16.45;6.75;;;;;;;23.58;100.00;98526.46;1750806;81;20970;-67
2021/07/20 03:56:53;;;;;;;;;;;;;;;23.61;100.00;98534.81;1750862;81;21417;-67
2021/07/20 03:59:25;;;;;;;8.80;6.92;;;;;;;23.63;100.00;98527.48;1719580;81;21130;-67
2021/07/20 04:02:14;;;;;;;12.18;6.60;;;;;;;23.64;100.00;98534.59;1754712;81;21391;-67
2021/07/20 04:04:44;;;;;;;15.65;7.03;;;;;;;23.67;100.00;98542.02;1725831;82;21398;-68
2021/07/20 04:07:18;;;;;;;10.23;6.95;;;;;;;23.70;100.00;98539.11;1752790;81;20991;-67
2021/07/20 04:09:50;;;;;;;12.93;7.60;;;;;;;23.75;100.00;98538.79;1744425;81;20896;-67
2021/07/20 04:12:25;;;;;;;14.78;8.43;;;;;;;23.78;100.00;98530.02;1748999;81;22460;-67
2021/07/20 04:15:09;;;;;;;16.17;8.00;;;;;;;23.81;100.00;98524.41;1751734;82;21517;-68
2021/07/20 04:17:39;;;;;;;9.90;6.70;;;;;;;23.86;100.00;98533.03;1727337;81;21549;-68
2021/07/20 04:20:09;;;;;;;11.28;7.20;;;;;;;23.89;100.00;98537.34;1756942;81;21113;-69
2021/07/20 04:22:39;;;;;;;14.98;7.97;;;;;;;23.91;100.00;98551.56;1706418;81;21013;-69
2021/07/20 04:25:10;;;;;;;12.90;7.67;;;;;;;23.94;100.00;98550.00;1728284;81;21964;-69
2021/07/20 04:27:41;;;;;;;13.85;6.97;;;;;;;23.95;100.00;98542.78;1710477;81;21047;-69
2021/07/20 04:30:12;;;;;;;18.42;7.80;;;;;;;23.99;100.00;98541.11;1752614;81;21474;-68
2021/07/20 04:32:51;;;;;;;13.40;7.47;;;;;;;24.05;100.00;98543.86;1719114;81;21018;-68
2021/07/20 04:35:20;;;;;;;11.45;7.05;;;;;;;24.07;100.00;98546.81;1715575;81;21446;-70
2021/07/20 04:37:51;;;;;;;87.05;9.53;;;;;;;24.09;100.00;98544.87;1747636;81;21794;-70
2021/07/20 04:40:19;;;;;;;11.40;7.20;;;;;;;24.12;100.00;98547.84;1755009;81;21421;-70
2021/07/20 04:42:49;;;;;;;12.03;7.15;;;;;;;24.15;100.00;98549.00;1717992;82;20899;-69
2021/07/20 04:45:19;;;;;;;10.90;7.62;;;;;;;24.18;100.00;98551.48;1758482;81;20939;-69
2021/07/20 04:47:51;;;;;;;10.28;7.33;;;;;;;24.23;100.00;98551.16;1750226;82;20888;-66
2021/07/20 04:50:27;;;;;;;16.50;7.97;;;;;;;24.26;100.00;98551.80;1728328;81;21489;-67
2021/07/20 04:52:58;;;;;;;11.65;8.05;;;;;;;24.30;100.00;98549.77;1712020;81;21603;-67
2021/07/20 04:55:30;;;;;;;13.85;8.20;;;;;;;24.31;100.00;98544.27;1752923;81;20875;-67
2021/07/20 04:58:02;;;;;;;11.80;7.72;;;;;;;24.35;100.00;98540.88;1752743;81;21035;-67
2021/07/20 05:00:36;;;;;;;14.07;8.00;;;;;;;24.38;100.00;98540.16;1758415;81;20928;-66
2021/07/20 05:03:07;;;;;;;16.65;7.72;;;;;;;24.42;100.00;98538.11;1719849;81;21433;-66
2021/07/20 05:05:39;;;;;;;15.13;9.03;;;;;;;24.46;100.00;98540.47;1754750;81;21382;-67
2021/07/20 05:08:16;;;;;;;12.07;8.13;;;;;;;24.51;100.00;98539.27;1757864;81;20922;-67
2021/07/20 05:10:48;;;;;;;11.12;7.80;;;;;;;24.57;100.00;98534.78;1753122;81;21071;-66
2021/07/20 05:13:20;;;;;;;18.62;8.90;;;;;;;24.66;100.00;98542.23;1752336;81;20871;-68
2021/07/20 05:15:51;;;;;;;13.15;8.63;;;;;;;24.74;100.00;98542.05;1753046;81;21103;-68
2021/07/20 05:18:21;;;;;;;15.08;8.85;;;;;;;24.84;100.00;98542.72;1759751;81;20928;-68
2021/07/20 05:20:52;;;;;;;20.02;8.98;;;;;;;24.91;100.00;98531.84;1713393;81;20919;-67
2021/07/20 05:23:21;;;;;;;12.78;8.45;;;;;;;24.97;100.00;98528.69;1745289;81;21548;-68
2021/07/20 05:25:51;;;;;;;14.15;8.83;;;;;;;25.02;100.00;98526.05;1757237;81;21358;-67
2021/07/20 05:28:23;;;;;;;13.38;9.85;;;;;;;25.05;100.00;98520.42;1752904;81;21110;-67
2021/07/20 05:30:58;;;;;;;15.45;9.73;;;;;;;25.09;100.00;98524.64;1751029;81;20888;-67
2021/07/20 05:33:27;;;;;;;14.75;9.70;;;;;;;25.13;100.00;98526.62;1751472;81;21440;-68
2021/07/20 05:36:08;;;;;;;17.48;9.65;;;;;;;25.17;100.00;98535.34;1754674;80;20843;-67
2021/07/20 05:38:36;;;;;;;16.60;9.53;;;;;;;25.18;100.00;98532.53;1755322;81;20930;-67
2021/07/20 05:41:23;;;;;;;15.90;9.95;;;;;;;25.22;100.00;98531.81;1753767;81;21147;-67
2021/07/20 05:43:53;;;;;;;18.40;10.63;;;;;;;25.24;100.00;98533.91;1752994;81;20891;-66
2021/07/20 05:46:21;;;;;;;14.93;10.30;;;;;;;25.25;100.00;98536.98;1752783;81;20935;-66
2021/07/20 05:48:52;;;;;;;13.62;10.38;;;;;;;25.27;100.00;98540.42;1751003;81;20962;-66
2021/07/20 05:51:21;;;;;;;14.00;9.85;;;;;;;25.30;100.00;98541.05;1760239;81;21017;-66
2021/07/20 05:53:54;;;;;;;15.03;10.18;;;;;;;25.32;100.00;98542.28;1745914;81;21172;-66
2021/07/20 05:56:43;;;;;;;17.80;11.03;;;;;;;25.36;100.00;98537.02;1748992;81;21509;-66
2021/07/20 05:59:19;;;;;;;17.20;11.15;;;;;;;25.39;100.00;98540.35;1698803;82;20891;-66
2021/07/20 06:01:48;;;;;;;14.90;10.63;;;;;;;25.42;100.00;98539.25;1714743;81;21045;-66
2021/07/20 06:04:17;;;;;;;15.50;11.05;;;;;;;25.45;100.00;98530.92;1720771;82;20986;-67
2021/07/20 06:06:51;;;;;;;13.78;9.65;;;;;;;25.52;100.00;98528.12;1750847;81;21134;-65
2021/07/20 06:09:19;;;;;;;14.53;10.00;;;;;;;25.63;100.00;98525.97;1751517;81;21140;-66
2021/07/20 06:11:48;;;;;;;17.90;11.00;;;;;;;25.76;100.00;98522.72;1751179;81;21006;-66
2021/07/20 06:14:17;;;;;;;18.40;11.03;;;;;;;25.84;100.00;98515.36;1762935;81;20938;-65
2021/07/20 06:16:45;;;;;;;15.28;10.43;;;;;;;25.90;100.00;98522.98;1751891;81;20946;-66
2021/07/20 06:19:13;;;;;;;16.80;10.10;;;;;;;25.96;100.00;98522.02;1753247;81;21171;-65
2021/07/20 06:21:41;;;;;;;18.48;10.88;;;;;;;26.04;100.00;98510.62;1753877;81;20880;-65
2021/07/20 06:24:12;;;;;;;18.23;10.63;;;;;;;26.10;100.00;98507.44;1747517;81;20931;-65
2021/07/20 06:26:41;;;;;;;13.53;11.55;;;;;;;26.18;100.00;98509.03;1750791;81;20917;-65
2021/07/20 06:29:09;;;;;;;17.62;11.00;;;;;;;26.30;100.00;98516.16;1758587;81;21543;-65
2021/07/20 06:31:39;;;;;;;15.68;10.20;;;;;;;26.42;100.00;98512.98;1754240;81;21848;-65
2021/07/20 06:34:07;;;;;;;18.82;10.85;;;;;;;26.57;100.00;98510.91;1758615;81;21021;-68
2021/07/20 06:36:37;;;;;;;15.28;9.43;;;;;;;26.69;100.00;98507.20;1754276;81;21377;-67
2021/07/20 06:39:06;;;;;;;14.15;8.93;;;;;;;26.80;100.00;98499.55;1754582;81;20855;-66
2021/07/20 06:41:37;;;;;;;17.85;9.83;;;;;;;26.89;100.00;98501.00;1748791;81;20893;-66
2021/07/20 06:44:06;;;;;;;13.05;9.08;;;;;;;26.98;100.00;98491.31;1749679;81;21095;-66
2021/07/20 06:46:34;;;;;;;15.05;8.75;;;;;;;27.05;100.00;98484.39;1750937;80;21062;-66
2021/07/20 06:49:02;;;;;;;13.20;8.33;;;;;;;27.14;100.00;98482.76;1725673;81;21501;-66
2021/07/20 06:51:31;;;;;;;10.98;7.80;;;;;;;27.20;100.00;98485.81;1737812;81;20977;-66
2021/07/20 06:53:59;;;;;;;15.28;8.23;;;;;;;27.29;100.00;98482.31;1737974;81;21123;-64
2021/07/20 06:56:37;;;;;;;12.70;8.65;;;;;;;27.36;100.00;98482.66;1738239;81;21134;-65
2021/07/20 06:59:06;;;;;;;11.28;8.13;;;;;;;27.44;100.00;98481.53;1719847;82;20856;-65
2021/07/20 07:01:34;;;;;;;14.47;8.35;;;;;;;27.52;100.00;98474.95;1729369;81;20952;-66
2021/07/20 07:04:13;;;;;;;13.13;8.58;;;;;;;27.63;100.00;98474.06;1667844;82;20918;-65
2021/07/20 07:06:46;;;;;;;13.45;8.40;;;;;;;27.71;100.00;98474.26;1735452;82;21441;-66
2021/07/20 07:09:15;;;;;;;12.80;6.80;;;;;;;27.80;100.00;98472.09;1754558;80;21149;-65
2021/07/20 07:11:45;;;;;;;16.02;6.45;;;;;;;27.86;100.00;98471.56;1750992;81;20853;-66
2021/07/20 07:14:14;;;;;;;10.55;7.10;;;;;;;27.90;100.00;98470.80;1723508;80;21554;-65
2021/07/20 07:16:45;;;;;;;12.35;7.08;;;;;;;27.89;100.00;98463.66;1747282;81;20996;-67
2021/07/20 07:19:15;;;;;;;11.88;6.47;;;;;;;27.88;100.00;98467.36;1717317;81;20901;-67
2021/07/20 07:21:44;;;;;;;15.27;6.73;;;;;;;27.86;100.00;98466.63;1727902;82;21225;-67
2021/07/20 07:24:17;;;;;;;10.05;6.67;;;;;;;27.84;100.00;98465.41;1730408;81;20978;-67
2021/07/20 07:26:46;;;;;;;9.75;6.62;;;;;;;27.85;100.00;98468.98;1749783;81;20949;-66
2021/07/20 07:29:16;;;;;;;12.23;6.78;;;;;;;27.84;100.00;98455.07;1749031;81;20876;-65
2021/07/20 07:31:48;;;;;;;10.45;6.97;;;;;;;27.86;100.00;98458.00;1750844;81;20932;-66
2021/07/20 07:34:16;;;;;;;14.73;7.33;;;;;;;27.92;100.00;98458.00;1737465;81;26549;-66
2021/07/20 07:36:45;;;;;;;16.25;7.47;;;;;;;27.98;100.00;98461.52;1707097;82;20921;-69
2021/07/20 07:39:13;;;;;;;14.28;7.58;;;;;;;28.05;100.00;98453.20;1737075;81;20999;-69
2021/07/20 07:41:42;;;;;;;9.70;7.20;;;;;;;28.14;100.00;98457.81;1733995;81;21407;-64
2021/07/20 07:44:11;;;;;;;10.15;7.15;;;;;;;28.25;100.00;98462.30;1717998;81;21548;-65
2021/07/20 07:46:41;;;;;;;14.63;7.50;;;;;;;28.35;100.00;98454.20;1735663;81;21493;-65
2021/07/20 07:49:10;;;;;;;10.38;7.33;;;;;;;28.46;100.00;98450.05;1751157;81;21007;-65
2021/07/20 07:51:39;;;;;;;22.25;8.15;;;;;;;28.57;100.00;98448.58;1747656;81;20903;-64
2021/07/20 07:54:07;;;;;;;12.73;8.45;;;;;;;28.66;100.00;98441.45;1731659;81;21074;-66
2021/07/20 07:56:36;;;;;;;19.98;9.70;;;;;;;28.74;100.00;98443.82;1730144;81;21160;-64
2021/07/20 07:59:04;;;;;;;10.72;8.10;;;;;;;28.83;100.00;98439.40;1715203;81;21818;-64
2021/07/20 08:01:33;;;;;;;17.40;8.18;;;;;;;28.89;100.00;98434.83;1751553;81;20929;-65
2021/07/20 08:04:01;;;;;;;21.62;9.68;;;;;;;28.95;100.00;98431.55;1737802;81;21018;-66
2021/07/20 08:06:30;;;;;;;15.05;9.68;;;;;;;28.99;100.00;98429.40;1735953;81;21494;-65
2021/07/20 08:09:02;;;;;;;15.85;9.78;;;;;;;28.98;100.00;98423.61;1743790;81;21545;-64
2021/07/20 08:11:30;;;;;;;15.88;9.95;;;;;;;28.97;100.00;98415.97;1748100;81;21117;-65
2021/07/20 08:14:00;;;;;;;13.65;9.53;;;;;;;28.96;100.00;98412.89;1749171;81;21561;-67
2021/07/20 08:16:30;;;;;;;14.07;8.98;;;;;;;28.93;100.00;98411.83;1750920;81;20904;-67
2021/07/20 08:18:58;;;;;;;18.82;9.88;;;;;;;28.91;100.00;98406.18;1748547;80;20950;-66
2021/07/20 08:21:28;;;;;;;12.58;9.85;;;;;;;28.93;100.00;98413.69;1743302;81;20980;-65
2021/07/20 08:23:56;;;;;;;15.08;10.48;;;;;;;28.94;100.00;98424.90;1743908;81;21111;-66
2021/07/20 08:26:28;;;;;;;37.28;13.30;;;;;;;28.95;100.00;98418.47;1747290;81;20903;-64
2021/07/20 08:29:11;;;;;;;23.15;10.85;;;;;;;28.97;100.00;98417.83;1736736;81;20942;-65
2021/07/20 08:31:44;;;;;;;16.93;10.35;;;;;;;29.03;100.00;98419.97;1739771;81;21493;-65
2021/07/20 08:34:13;;;;;;;23.55;11.45;;;;;;;29.10;100.00;98415.17;1747357;81;21505;-65
2021/07/20 08:36:41;;;;;;;16.37;10.35;;;;;;;29.17;100.00;98404.59;1738609;80;21877;-69
2021/07/20 08:39:30;;;;;;;18.62;9.98;;;;;;;29.25;100.00;98408.80;1751285;81;20957;-70
2021/07/20 08:42:33;;;;;;;12.28;8.98;;;;;;;29.32;100.00;98414.51;1728908;82;21428;-69
2021/07/20 08:45:23;;;;;;;12.90;8.70;;;;;;;29.39;100.00;98412.45;1715362;82;20978;-71
2021/07/20 08:48:24;;;;;;;13.98;9.00;;;;;;;29.50;100.00;98405.17;1725256;82;20918;-70
2021/07/20 08:51:16;;;;;;;13.03;9.50;;;;;;;29.62;100.00;98408.93;1741893;80;21562;-68
2021/07/20 08:54:12;;;;;;;14.35;9.43;;;;;;;29.76;100.00;98408.95;1743357;80;20968;-69
2021/07/20 08:56:45;;;;;;;11.03;7.55;;;;;;;29.86;100.00;98398.08;1744704;80;20914;-71
2021/07/20 08:59:22;;;;;;;12.58;7.35;;;;;;;29.95;100.00;98397.18;1741468;81;20959;-69
2021/07/20 09:02:02;;;;;;;13.32;7.60;;;;;;;30.00;100.00;98394.87;1740237;80;20971;-70
2021/07/20 09:04:40;;;;;;;16.10;8.40;;;;;;;30.06;100.00;98388.86;1752124;80;21191;-70
2021/07/20 09:07:13;;;;;;;15.10;7.80;;;;;;;30.11;100.00;98383.82;1757519;80;21093;-69
2021/07/20 09:09:47;;;;;;;11.43;8.05;;;;;;;30.17;100.00;98379.64;1758085;80;21485;-70
2021/07/20 09:12:27;;;;;;;11.93;7.30;;;;;;;30.20;100.00;98376.62;1743150;80;20944;-70
2021/07/20 09:15:06;;;;;;;9.27;8.00;;;;;;;30.23;100.00;98383.11;1742053;80;20923;-69
2021/07/20 09:17:48;;;;;;;16.73;7.97;;;;;;;30.26;100.00;98373.28;1724348;80;21396;-70
2021/07/20 09:20:23;;;;;;;15.93;8.10;;;;;;;30.28;100.00;98378.10;1747682;81;20954;-69
2021/07/20 09:23:26;;;;;;;21.33;8.00;;;;;;;30.26;100.00;98376.01;1758091;80;20912;-69
2021/07/20 09:26:08;;;;;;;12.13;6.90;;;;;;;30.22;100.00;98378.68;1688378;83;21006;-69
2021/07/20 09:28:39;;;;;;;;;;;;;;;30.22;100.00;98375.95;1715595;82;20947;-70
2021/07/20 09:31:33;;;;;;;14.85;7.17;;;;;;;30.21;100.00;98376.46;1714031;83;21296;-70
2021/07/20 09:34:40;;;;;;;9.15;6.50;;;;;;;30.19;100.00;98370.31;1715112;83;21065;-69
2021/07/20 09:37:10;;;;;;;10.05;6.83;;;;;;;30.19;100.00;98360.80;1715020;82;20971;-69
2021/07/20 09:40:29;;;;;;;11.63;7.05;;;;;;;30.17;100.00;98351.08;1705830;83;21679;-69
2021/07/20 09:43:07;;;;;;;20.52;7.40;;;;;;;30.14;100.00;98348.16;1709099;83;20984;-69
2021/07/20 09:45:41;;;;;;;33.95;9.25;;;;;;;30.12;100.00;98356.12;1715848;83;21245;-70
2021/07/20 09:48:43;;;;;;;15.38;7.05;;;;;;;30.12;100.00;98343.88;1713398;83;21455;-73
2021/07/20 09:51:53;;;;;;;8.45;6.53;;;;;;;30.13;100.00;98343.73;1713216;83;21181;-74
2021/07/20 09:55:15;;;;;;;32.95;9.50;;;;;;;30.15;100.00;98340.86;1712657;83;20900;-77
2021/07/20 09:58:05;;;;;;;16.32;7.53;;;;;;;30.16;100.00;98333.05;1713541;82;20982;-76
2021/07/20 10:00:43;;;;;;;18.57;7.40;;;;;;;30.16;100.00;98331.69;1713674;82;21148;-76
2021/07/20 10:03:25;;;;;;;10.70;6.28;;;;;;;30.23;100.00;98327.34;1710544;83;20987;-76
2021/07/20 10:06:35;;;;;;;13.88;7.33;;;;;;;30.26;100.00;98322.45;1711842;83;21450;-75
2021/07/20 10:09:46;;;;;;;10.88;6.25;;;;;;;30.26;100.00;98318.38;1705935;82;21022;-76
2021/07/20 10:12:28;;;;;;;37.98;10.75;;;;;;;30.22;100.00;98310.17;1713595;83;21030;-75
2021/07/20 10:15:10;;;;;;;12.53;7.15;;;;;;;30.20;100.00;98314.05;1701914;83;21153;-75
2021/07/20 10:18:03;;;;;;;18.40;7.10;;;;;;;30.18;100.00;98301.96;1715102;83;20940;-75
2021/07/20 10:20:44;;;;;;;9.88;6.17;;;;;;;30.20;100.00;98301.30;1714887;83;20990;-75
2021/07/20 10:23:19;;;;;;;13.60;7.33;;;;;;;30.22;100.00;98298.43;1713868;83;21480;-76
2021/07/20 10:26:15;;;;;;;12.95;6.70;;;;;;;30.27;100.00;98294.27;1716285;83;20998;-73
2021/07/20 10:29:08;;;;;;;10.72;6.35;;;;;;;30.36;100.00;98291.13;1709279;82;21194;-72
2021/07/20 10:31:57;;;;;;;14.33;5.70;;;;;;;30.48;100.00;98289.03;1645819;85;21473;-68
2021/07/20 10:34:27;;;;;;;13.30;6.03;;;;;;;30.57;100.00;98287.59;1674760;85;20981;-68
2021/07/20 10:37:12;;;;;;;18.20;6.83;;;;;;;30.68;100.00;98278.35;1640431;86;21069;-68
2021/07/20 10:40:12;;;;;;;12.10;6.08;;;;;;;30.76;100.00;98281.68;1676193;85;21108;-69
2021/07/20 10:42:53;;;;;;;9.73;6.08;;;;;;;30.82;100.00;98284.63;1679030;85;21115;-68
2021/07/20 10:45:24;;;;;;;12.28;7.10;;;;;;;30.85;100.00;98287.53;1672362;85;20989;-68
2021/07/20 10:48:06;;;;;;;13.83;7.60;;;;;;;30.89;100.00;98285.70;1649437;85;20959;-65
2021/07/20 10:50:51;;;;;;;16.23;6.58;;;;;;;30.96;100.00;98299.03;1675370;85;21009;-67
2021/07/20 10:53:53;;;;;;;40.43;10.45;;;;;;;31.05;100.00;98299.95;1674213;85;20998;-66
2021/07/20 10:56:56;;;;;;;31.60;9.43;;;;;;;31.13;100.00;98301.87;1676402;85;21031;-67
2021/07/20 10:59:47;;;;;;;17.35;8.43;;;;;;;31.20;100.00;98301.10;1672455;85;20909;-69
2021/07/20 11:02:33;;;;;;;14.45;7.92;;;;;;;31.27;100.00;98303.56;1678681;85;21463;-66
2021/07/20 11:05:08;;;;;;;13.13;7.22;;;;;;;31.30;100.00;98296.94;1672485;85;21581;-67
2021/07/20 11:08:05;;;;;;;26.17;8.53;;;;;;;31.30;100.00;98284.17;1663434;85;21472;-68
2021/07/20 11:10:56;;;;;;;19.05;8.85;;;;;;;31.34;100.00;98287.94;1654894;85;21147;-69
2021/07/20 11:13:33;;;;;;;15.68;7.65;;;;;;;31.34;100.00;98275.67;1693143;83;20916;-67
2021/07/20 11:16:08;;;;;;;26.05;8.83;;;;;;;31.30;100.00;98276.00;1745799;81;21438;-69
2021/07/20 11:18:39;;;;;;;17.48;8.18;;;;;;;31.29;100.00;98266.11;1743452;81;20912;-72
2021/07/20 11:21:10;;;;;;;11.60;7.42;;;;;;;31.26;100.00;98263.71;1744481;81;21425;-72
2021/07/20 11:23:40;;;;;;;12.88;7.15;;;;;;;31.26;100.00;98264.22;1745379;81;21151;-72
2021/07/20 11:26:08;;;;;;;10.85;7.28;;;;;;;31.24;100.00;98265.74;1741250;81;20889;-72
2021/07/20 11:28:43;;;;;;;11.30;6.78;;;;;;;31.24;100.00;98272.55;1739145;82;21439;-72
2021/07/20 11:31:17;;;;;;;12.95;7.25;;;;;;;31.20;100.00;98275.73;1733245;82;21544;-71
2021/07/20 11:33:50;;;;;;;15.03;7.20;;;;;;;31.16;100.00;98271.11;1739391;82;20966;-71
2021/07/20 11:36:20;;;;;;;12.45;7.00;;;;;;;31.11;100.00;98269.34;1743718;82;21146;-72
2021/07/20 11:38:53;;;;;;;8.35;6.78;;;;;;;31.07;100.00;98271.19;1744498;82;20928;-72
2021/07/20 11:41:43;;;;;;;10.53;6.15;;;;;;;31.04;100.00;98257.89;1740195;82;21059;-72
2021/07/20 11:44:40;;;;;;;10.78;6.30;;;;;;;30.99;100.00;98250.20;1740239;80;21129;-73
2021/07/20 11:47:27;;;;;;;8.88;6.20;;;;;;;30.91;100.00;98250.14;1740952;81;20919;-73
2021/07/20 11:50:11;;;;;;;8.78;5.80;;;;;;;30.85;100.00;98249.42;1630925;85;21134;-71
2021/07/20 11:53:16;;;;;;;8.60;5.80;;;;;;;30.75;100.00;98242.71;1697337;83;20925;-74
2021/07/20 11:55:55;;;;;;;9.60;5.85;;;;;;;30.64;100.00;98243.78;1657961;85;20966;-74
2021/07/20 11:58:46;;;;;;;8.83;5.55;;;;;;;30.55;100.00;98243.34;1708187;83;21106;-73
2021/07/20 12:01:39;;;;;;;8.37;5.60;;;;;;;30.46;100.00;98237.48;1714262;83;21455;-74
2021/07/20 12:04:18;;;;;;;;;;;;;;;30.37;100.00;98235.70;1705962;84;21106;-73
2021/07/20 12:07:17;;;;;;;6.55;4.97;;;;;;;30.28;100.00;98242.08;1706935;84;20090;-74
2021/07/20 12:10:01;;;;;;;12.58;6.08;;;;;;;30.16;100.00;98238.70;1705145;83;21498;-73
2021/07/20 12:12:48;;;;;;;7.50;5.22;;;;;;;30.05;100.00;98239.78;1657162;84;20984;-73
2021/07/20 12:15:17;;;;;;;10.75;5.25;;;;;;;29.94;100.00;98230.45;1712280;83;20896;-74
2021/07/20 12:17:45;;;;;;;8.75;5.35;;;;;;;29.83;100.00;98218.95;1682039;83;21113;-74
2021/07/20 12:20:16;;;;;;;12.95;5.67;;;;;;;29.71;100.00;98226.42;1676942;84;20924;-74
2021/07/20 12:22:53;;;;;;;7.97;5.33;;;;;;;29.61;100.00;98224.27;1676653;84;21517;-74
2021/07/20 12:25:21;;;;;;;9.45;5.37;;;;;;;29.55;100.00;98231.67;1679900;83;20984;-73
2021/07/20 12:27:51;;;;;;;9.70;5.22;;;;;;;29.44;100.00;98229.51;1675924;85;21451;-74
2021/07/20 12:30:21;;;;;;;8.75;5.20;;;;;;;29.35;100.00;98242.60;1677603;83;21172;-73
2021/07/20 12:32:51;;;;;;;11.70;5.03;;;;;;;29.27;100.00;98259.26;1659701;83;21555;-73
2021/07/20 12:35:24;;;;;;;8.00;5.22;;;;;;;29.17;100.00;98278.30;1655721;84;21080;-74
2021/07/20 12:38:06;;;;;;;10.03;5.20;;;;;;;29.11;100.00;98284.33;1655440;85;20945;-68
2021/07/20 12:40:35;;;;;;;21.15;7.72;;;;;;;29.05;100.00;98264.55;1654608;84;21583;-68
2021/07/20 12:43:14;;;;;;;14.40;6.47;;;;;;;28.95;100.00;98233.35;1677879;83;21132;-69
2021/07/20 12:45:45;;;;;;;13.03;6.33;;;;;;;28.83;100.00;98242.61;1676513;83;21017;-69
2021/07/20 12:48:26;;;;;;;10.13;6.25;;;;;;;28.71;100.00;98258.70;1649870;84;21033;-70
2021/07/20 12:50:57;;;;;;;16.23;6.50;;;;;;;28.55;100.00;98262.00;1653182;85;21065;-70
2021/07/20 12:53:25;;;;;;;12.78;6.53;;;;;;;28.41;100.00;98277.36;1645741;85;21021;-72
2021/07/20 12:55:53;;;;;;;13.15;6.70;;;;;;;28.26;100.00;98287.73;1645330;85;21587;-71
2021/07/20 12:58:22;;;;;;;12.33;6.50;;;;;;;28.12;100.00;98276.78;1662988;84;21448;-72
2021/07/20 13:00:50;;;;;;;9.98;6.15;;;;;;;27.98;100.00;98280.39;1656501;84;20954;-72
2021/07/20 13:03:19;;;;;;;9.73;6.37;;;;;;;27.82;100.00;98280.90;1662282;85;21116;-72
2021/07/20 13:05:47;;;;;;;11.53;6.28;;;;;;;27.66;100.00;98269.23;1657744;85;21000;-70
2021/07/20 13:08:18;;;;;;;9.78;5.90;;;;;;;27.52;100.00;98267.73;1685964;82;21103;-72
2021/07/20 13:10:48;;;;;;;10.05;5.78;;;;;;;27.43;100.00;98253.63;1698116;83;20980;-71
2021/07/20 13:13:15;;;;;;;8.88;6.67;;;;;;;27.34;100.00;98246.81;1705537;83;20879;-71
2021/07/20 13:15:49;;;;;;;15.28;6.90;;;;;;;27.20;100.00;98241.27;1691518;83;20976;-70
2021/07/20 13:18:26;;;;;;;10.48;6.45;;;;;;;27.09;100.00;98257.61;1705641;82;20988;-73
2021/07/20 13:20:57;;;;;;;10.23;6.10;;;;;;;26.98;100.00;98250.42;1701799;83;21748;-72
2021/07/20 13:23:34;;;;;;;9.27;6.20;;;;;;;26.78;100.00;98248.53;1694493;82;20900;-71
2021/07/20 13:26:01;;;;;;;10.50;6.72;;;;;;;26.78;100.00;98248.53;1711712;82;21476;-69
2021/07/20 13:28:29;;;;;;;9.70;6.80;;;;;;;26.71;100.00;98252.77;1710157;83;20980;-69
2021/07/20 13:31:06;;;;;;;9.88;6.30;;;;;;;26.64;100.00;98250.58;1708609;83;21104;-70
2021/07/20 13:33:33;;;;;;;11.78;6.60;;;;;;;26.56;100.00;98253.59;1708806;82;21612;-69
2021/07/20 13:36:00;;;;;;;7.75;6.25;;;;;;;26.49;100.00;98287.06;1705432;82;21483;-70
2021/07/20 13:38:30;;;;;;;7.05;5.80;;;;;;;26.42;100.00;98313.36;1708993;82;21041;-69
2021/07/20 13:41:02;;;;;;;14.73;6.28;;;;;;;26.36;100.00;98318.80;1710388;82;21084;-71
2021/07/20 14:48:15;;;;;;;9.63;6.22;;;;;;;24.48;100.00;98138.66;1764950;76;952357;-67
2021/07/20 14:50:55;;;;;;;7.67;5.55;;;;;;;24.43;100.00;98150.30;1664559;83;20908;-65
2021/07/20 14:53:27;;;;;;;6.85;5.55;;;;;;;24.38;100.00;98152.50;1726365;82;21458;-65
2021/07/20 14:56:08;;;;;;;9.45;5.65;;;;;;;24.38;100.00;98164.13;1722671;82;20939;-64
2021/07/20 14:58:41;;;;;;;7.80;5.37;;;;;;;24.37;100.00;98189.38;1725287;82;20967;-66
2021/07/20 15:01:13;;;;;;;7.23;5.30;;;;;;;24.41;100.00;98204.81;1726657;82;20982;-66
2021/07/20 15:03:53;;;;;;;6.28;5.08;;;;;;;24.39;100.00;98210.81;1720847;82;20928;-69
2021/07/20 15:06:36;;;;;;;5.85;4.72;;;;;;;24.38;100.00;98196.48;1719788;82;20912;-69
2021/07/20 15:09:21;;;;;;;11.65;5.17;;;;;;;24.37;100.00;98223.06;1724165;82;20935;-69
2021/07/20 15:11:55;;;;;;;6.90;5.15;;;;;;;24.35;100.00;98250.63;1725461;82;21154;-69
2021/07/20 15:14:31;;;;;;;7.08;5.08;;;;;;;24.33;100.00;98256.62;1726462;82;20903;-69
2021/07/20 15:17:06;;;;;;;5.35;4.83;;;;;;;24.29;100.00;98243.50;1724770;82;21054;-72
2021/07/20 15:19:39;;;;;;;8.33;5.05;;;;;;;24.28;100.00;98235.04;1722186;83;20884;-68
2021/07/20 15:22:19;;;;;;;6.25;4.72;;;;;;;24.29;100.00;98232.72;1725260;82;20987;-66
2021/07/20 15:24:49;;;;;;;7.47;5.03;;;;;;;24.27;100.00;98213.08;1719582;82;21188;-69
2021/07/20 15:27:20;;;;;;;9.70;5.10;;;;;;;24.27;100.00;98223.86;1720883;83;22089;-68
2021/07/20 15:29:50;;;;;;;8.90;4.90;;;;;;;24.25;100.00;98232.55;1723617;82;20911;-71
2021/07/20 15:32:20;;;;;;;6.70;5.03;;;;;;;24.23;100.00;98235.84;1722161;83;21027;-71
2021/07/20 15:34:49;;;;;;;8.43;4.85;;;;;;;24.23;100.00;98231.80;1724724;82;20966;-70
2021/07/20 15:37:24;;;;;;;8.25;5.15;;;;;;;24.22;100.00;98228.25;1724060;82;21169;-71
2021/07/20 15:40:09;;;;;;;6.50;4.60;;;;;;;24.21;100.00;98224.33;1720835;82;21479;-70
2021/07/20 15:42:41;;;;;;;8.98;4.55;;;;;;;24.17;100.00;98217.83;1720406;83;21556;-69
2021/07/20 15:45:24;;;;;;;5.70;4.12;;;;;;;24.13;100.00;98208.25;1722548;82;28645;-71
2021/07/20 15:47:55;;;;;;;7.75;4.28;;;;;;;24.10;100.00;98200.86;1724171;82;20932;-72
2021/07/20 15:50:30;;;;;;;7.62;4.53;;;;;;;24.08;100.00;98206.86;1720353;82;21125;-72
2021/07/20 15:53:05;;;;;;;8.43;4.47;;;;;;;24.07;100.00;98203.30;1722724;82;21000;-71